Time;durP1;ratioP1;P1;durP2;ratioP2;P2;SDS_P1;SDS_P2;PMS_P1;PMS_P2;Temp;Humidity;BMP_temperature;BMP_pressure;BME280_temperature;BME280_humidity;BME280_pressure;Samples;Min_cycle;Max_cycle;Signal;HPM_P1;HPM_P2
2022/04/29 00:00:09;;;;;;;2.03;0.90;;;-0.10;65.20;;;;;;4992503;28;20026;-73
2022/04/29 00:02:36;;;;;;;1.17;1.08;;;0.00;65.40;;;;;;4992217;28;20023;-73
2022/04/29 00:05:03;;;;;;;0.95;0.88;;;0.00;65.30;;;;;;4992459;28;20038;-73
2022/04/29 00:07:28;;;;;;;3.08;1.10;;;0.00;65.30;;;;;;4992214;28;20030;-73
2022/04/29 00:09:54;;;;;;;2.13;1.10;;;-0.10;65.30;;;;;;4993465;28;20023;-73
2022/04/29 00:12:20;;;;;;;1.70;0.90;;;-0.10;65.70;;;;;;4995981;28;20045;-73
2022/04/29 00:14:47;;;;;;;1.90;0.77;;;-0.10;65.80;;;;;;4995979;28;20021;-75
2022/04/29 00:17:12;;;;;;;1.38;0.90;;;-0.10;66.00;;;;;;4995789;28;20041;-75
2022/04/29 00:19:39;;;;;;;1.23;0.70;;;-0.20;66.30;;;;;;4995935;28;20102;-76
2022/04/29 00:22:04;;;;;;;0.70;0.70;;;-0.20;66.40;;;;;;4995684;28;20030;-75
2022/04/29 00:24:31;;;;;;;3.60;0.90;;;-0.20;66.80;;;;;;4995828;28;20092;-73
2022/04/29 00:26:58;;;;;;;1.23;0.88;;;-0.30;66.80;;;;;;4995501;28;20493;-73
2022/04/29 00:29:24;;;;;;;2.88;0.93;;;-0.40;66.40;;;;;;4995730;28;20030;-73
2022/04/29 00:31:50;;;;;;;1.27;0.85;;;-0.30;66.20;;;;;;4995603;28;20038;-73
2022/04/29 00:34:17;;;;;;;1.40;0.88;;;-0.30;66.10;;;;;;4995791;28;20069;-73
2022/04/29 00:36:42;;;;;;;3.13;0.88;;;-0.40;66.20;;;;;;4995469;28;20026;-74
2022/04/29 00:39:08;;;;;;;3.10;1.20;;;-0.40;66.70;;;;;;4995692;28;20046;-74
2022/04/29 00:41:34;;;;;;;1.58;0.90;;;-0.40;66.80;;;;;;4995737;28;20519;-74
2022/04/29 00:44:05;;;;;;;1.80;1.08;;;-0.40;67.00;;;;;;4977940;28;20474;-74
2022/04/29 00:46:36;;;;;;;2.05;1.10;;;-0.40;67.70;;;;;;4995701;28;20037;-74
2022/04/29 00:49:03;;;;;;;2.92;0.88;;;-0.40;66.90;;;;;;4977800;28;20363;-74
2022/04/29 00:51:29;;;;;;;4.35;1.02;;;-0.40;66.70;;;;;;4995178;28;20066;-74
2022/04/29 00:53:57;;;;;;;2.10;1.00;;;-0.50;66.90;;;;;;4995362;28;20050;-73
2022/04/29 00:56:23;;;;;;;3.22;1.00;;;-0.50;67.20;;;;;;4995144;28;20578;-73
2022/04/29 00:58:58;;;;;;;1.23;0.90;;;-0.50;67.40;;;;;;4995123;28;20023;-73
2022/04/29 01:01:25;;;;;;;3.20;1.05;;;-0.50;68.00;;;;;;4995111;28;20033;-73
2022/04/29 01:03:53;;;;;;;1.35;0.90;;;-0.50;68.30;;;;;;4995116;28;20022;-73
2022/04/29 01:06:19;;;;;;;1.95;0.70;;;-0.50;67.60;;;;;;4994915;28;20030;-73
2022/04/29 01:08:45;;;;;;;1.80;1.08;;;-0.50;67.10;;;;;;4994881;28;20023;-73
2022/04/29 01:11:10;;;;;;;2.78;0.90;;;-0.40;67.10;;;;;;4995011;28;20046;-73
2022/04/29 01:13:36;;;;;;;0.93;0.88;;;-0.50;67.40;;;;;;4995213;28;20501;-73
2022/04/29 01:16:02;;;;;;;2.10;0.93;;;-0.50;67.50;;;;;;4994750;28;20105;-73
2022/04/29 01:18:28;;;;;;;4.32;0.90;;;-0.60;67.80;;;;;;4994948;28;20030;-73
2022/04/29 01:21:01;;;;;;;1.63;1.08;;;-0.60;68.00;;;;;;4993794;28;20031;-73
2022/04/29 01:23:28;;;;;;;3.30;0.90;;;-0.60;68.00;;;;;;4994904;28;20403;-74
2022/04/29 01:25:55;;;;;;;1.30;0.98;;;-0.60;67.90;;;;;;4994798;28;20597;-74
2022/04/29 01:28:21;;;;;;;3.15;1.08;;;-0.70;68.10;;;;;;4994904;28;20446;-74
2022/04/29 01:30:51;;;;;;;1.10;1.00;;;-0.70;68.50;;;;;;4994587;28;20042;-73
2022/04/29 01:33:18;;;;;;;1.85;0.93;;;-0.70;68.90;;;;;;4994348;28;20483;-73
2022/04/29 01:35:43;;;;;;;3.08;1.10;;;-0.70;69.10;;;;;;4994361;28;20050;-73
2022/04/29 01:38:09;;;;;;;4.40;1.60;;;-0.80;69.70;;;;;;4994054;28;20046;-73
2022/04/29 01:40:35;;;;;;;2.40;1.00;;;-0.90;70.00;;;;;;4994430;28;20474;-74
2022/04/29 01:43:02;;;;;;;1.95;0.95;;;-0.90;69.70;;;;;;4994235;28;20483;-74
2022/04/29 01:45:28;;;;;;;1.58;0.93;;;-0.90;69.40;;;;;;4994396;28;20058;-74
2022/04/29 01:47:54;;;;;;;0.70;0.70;;;-0.90;70.20;;;;;;4994490;28;20493;-74
2022/04/29 01:50:20;;;;;;;3.35;0.88;;;-0.90;70.00;;;;;;4994098;28;20394;-74
2022/04/29 01:52:45;;;;;;;0.98;0.85;;;-1.00;70.20;;;;;;4994158;28;20057;-74
2022/04/29 01:55:11;;;;;;;2.67;0.80;;;-1.00;69.90;;;;;;4993963;28;20049;-74
2022/04/29 01:57:37;;;;;;;1.85;0.80;;;-1.00;69.30;;;;;;4994020;28;20478;-74
2022/04/29 02:00:12;;;;;;;2.17;1.08;;;-0.90;69.40;;;;;;4993882;28;20022;-74
2022/04/29 02:02:38;;;;;;;3.38;0.80;;;-0.90;69.30;;;;;;4993950;28;20038;-73
2022/04/29 02:05:04;;;;;;;1.27;0.95;;;-0.90;69.30;;;;;;4993853;28;20025;-73
2022/04/29 02:07:30;;;;;;;2.40;0.93;;;-1.00;69.50;;;;;;4994110;28;20556;-73
2022/04/29 02:09:56;;;;;;;2.60;0.88;;;-1.00;69.90;;;;;;4993808;28;20394;-73
2022/04/29 02:12:22;;;;;;;0.80;0.80;;;-1.20;70.60;;;;;;4993843;28;20173;-73
2022/04/29 02:14:48;;;;;;;0.80;0.80;;;-1.30;70.90;;;;;;4993714;28;20109;-73
2022/04/29 02:17:15;;;;;;;3.35;1.08;;;-1.30;71.40;;;;;;4993574;28;20022;-73
2022/04/29 02:19:40;;;;;;;0.95;0.95;;;-1.30;71.60;;;;;;4993914;28;20049;-73
2022/04/29 02:22:08;;;;;;;1.83;1.10;;;-1.30;71.40;;;;;;4993666;28;20470;-73
2022/04/29 02:56:03;;;;;;;1.08;0.88;;;-1.40;71.90;;;;;;4976799;28;20588;-72
2022/04/29 02:58:29;;;;;;;5.03;1.10;;;-1.40;72.00;;;;;;4973609;28;20062;-72
2022/04/29 03:00:56;;;;;;;1.58;1.48;;;-1.50;72.40;;;;;;4956243;28;20027;-73
2022/04/29 03:03:22;;;;;;;2.60;1.08;;;-1.50;72.80;;;;;;4973548;28;20084;-69
2022/04/29 03:37:32;;;;;;;1.65;0.80;;;-1.40;76.10;;;;;;5633163;23;20058;-65
2022/04/29 03:39:58;;;;;;;3.80;0.98;;;-1.30;76.00;;;;;;4973010;28;20039;-65
2022/04/29 03:42:24;;;;;;;4.15;1.00;;;-1.10;75.90;;;;;;4972820;28;20027;-65
2022/04/29 03:44:50;;;;;;;8.05;1.27;;;-0.80;76.50;;;;;;4974193;28;20474;-65
2022/04/29 03:47:16;;;;;;;2.22;1.17;;;-0.40;75.10;;;;;;4959951;28;20030;-65
2022/04/29 03:49:41;;;;;;;2.25;0.80;;;0.00;73.90;;;;;;4977271;28;20528;-66
2022/04/29 03:52:07;;;;;;;3.13;1.10;;;0.50;72.80;;;;;;4976790;28;20039;-66
2022/04/29 03:54:33;;;;;;;3.22;0.93;;;0.90;71.50;;;;;;4977112;28;20030;-66
2022/04/29 03:56:59;;;;;;;4.18;1.05;;;1.30;70.20;;;;;;4977059;28;20382;-66
2022/04/29 03:59:25;;;;;;;5.90;0.73;;;1.70;68.90;;;;;;4976691;28;20089;-67
2022/04/29 04:01:51;;;;;;;5.47;1.50;;;2.10;67.90;;;;;;4976641;28;20474;-66
2022/04/29 04:07:22;;;;;;;5.55;0.88;;;2.70;65.90;;;;;;4976545;28;20077;-65
2022/04/29 04:09:48;;;;;;;9.40;1.10;;;2.70;64.80;;;;;;4976755;28;20034;-65
2022/04/29 04:12:13;;;;;;;1.83;0.75;;;2.80;64.80;;;;;;4976329;28;20442;-66
2022/04/29 04:14:39;;;;;;;4.15;0.82;;;3.10;64.50;;;;;;4976489;28;20433;-66
2022/04/29 04:17:05;;;;;;;4.47;1.25;;;3.40;63.80;;;;;;4976281;28;20469;-66
2022/04/29 04:19:30;;;;;;;2.65;0.90;;;3.70;63.00;;;;;;4976638;28;20154;-66
2022/04/29 04:21:56;;;;;;;1.08;0.60;;;4.10;62.30;;;;;;4959405;28;20027;-65
2022/04/29 04:24:22;;;;;;;1.88;1.15;;;4.40;62.20;;;;;;4976056;28;20089;-65
2022/04/29 04:26:48;;;;;;;3.97;0.98;;;4.70;60.00;;;;;;4976326;28;20139;-66
2022/04/29 04:29:13;;;;;;;4.75;1.08;;;4.80;59.80;;;;;;4976101;28;20027;-66
2022/04/29 04:31:39;;;;;;;3.17;0.90;;;4.80;59.60;;;;;;4976160;28;20042;-67
2022/04/29 04:34:49;;;;;;;1.48;0.80;;;4.70;59.20;;;;;;4958634;28;20034;-66
2022/04/29 04:36:53;;;;;;;3.20;0.90;;;4.60;59.30;;;;;;4986947;28;20517;-64
2022/04/29 04:39:20;;;;;;;1.60;0.55;;;4.60;60.10;;;;;;4995344;28;20037;-64
2022/04/29 04:41:46;;;;;;;1.00;0.63;;;4.50;59.40;;;;;;4995552;28;20389;-63
2022/04/29 04:44:12;;;;;;;1.40;0.80;;;4.70;60.20;;;;;;4994913;28;20405;-64
2022/04/29 04:46:38;;;;;;;1.25;0.60;;;4.90;58.80;;;;;;4991604;28;20041;-63
2022/04/29 04:49:04;;;;;;;0.90;0.60;;;5.10;58.30;;;;;;4974679;28;20022;-63
2022/04/29 04:51:30;;;;;;;3.42;0.68;;;5.20;57.80;;;;;;4986283;28;20568;-63
2022/04/29 04:53:55;;;;;;;3.78;0.60;;;5.20;57.70;;;;;;4990199;28;20061;-64
2022/04/29 04:56:21;;;;;;;6.20;0.57;;;5.20;57.50;;;;;;4988909;28;20133;-63
2022/04/29 04:58:47;;;;;;;3.53;0.65;;;5.30;57.70;;;;;;4993894;28;20105;-64
2022/04/29 05:01:12;;;;;;;4.35;0.70;;;5.20;57.50;;;;;;4991110;28;20030;-64
2022/04/29 05:03:38;;;;;;;1.35;0.50;;;5.20;57.50;;;;;;4988899;28;20461;-63
2022/04/29 05:06:04;;;;;;;1.85;0.50;;;5.30;57.60;;;;;;4990687;28;20034;-63
2022/04/29 05:08:29;;;;;;;1.98;0.60;;;5.40;57.60;;;;;;4987838;28;20055;-63
2022/04/29 05:10:55;;;;;;;10.70;1.00;;;5.30;57.10;;;;;;4986377;28;20092;-63
2022/04/29 05:13:21;;;;;;;2.05;0.65;;;5.30;57.00;;;;;;4994677;28;20488;-64
2022/04/29 05:15:46;;;;;;;2.55;0.68;;;5.40;57.80;;;;;;4994850;28;20397;-64
2022/04/29 05:18:12;;;;;;;6.57;0.60;;;5.40;56.90;;;;;;4994804;28;20074;-64
2022/04/29 05:20:37;;;;;;;4.15;0.77;;;5.20;56.90;;;;;;4994858;28;20034;-65
2022/04/29 05:23:03;;;;;;;3.70;0.85;;;5.10;56.80;;;;;;4994518;28;20470;-64
2022/04/29 05:25:29;;;;;;;13.73;1.10;;;5.10;57.30;;;;;;4994648;28;20037;-64
2022/04/29 05:27:57;;;;;;;9.32;0.70;;;5.20;57.10;;;;;;4994581;28;20105;-65
2022/04/29 05:30:23;;;;;;;4.25;0.57;;;5.20;57.20;;;;;;4994307;28;20034;-64
2022/04/29 05:32:49;;;;;;;1.35;0.50;;;5.30;56.90;;;;;;4994167;28;20030;-63
2022/04/29 05:35:15;;;;;;;4.95;0.60;;;5.30;56.70;;;;;;4992941;28;20382;-63
2022/04/29 05:37:40;;;;;;;8.95;0.85;;;5.40;56.50;;;;;;4993261;28;20055;-63
2022/04/29 05:42:53;;;;;;;3.40;0.57;;;5.70;56.40;;;;;;4994567;28;20383;-63
2022/04/29 05:45:19;;;;;;;0.95;0.50;;;5.80;56.00;;;;;;4994459;28;20149;-64
2022/04/29 05:47:44;;;;;;;1.52;0.60;;;5.90;55.80;;;;;;4994041;28;20109;-63
2022/04/29 05:50:10;;;;;;;1.25;0.60;;;5.90;55.00;;;;;;4994338;28;20032;-64
2022/04/29 05:52:36;;;;;;;1.00;0.50;;;6.00;55.90;;;;;;4994366;28;20026;-60
2022/04/29 05:55:02;;;;;;;2.15;0.85;;;6.60;57.40;;;;;;4993918;28;20029;-62
2022/04/29 05:57:27;;;;;;;0.68;0.60;;;6.70;55.20;;;;;;4993909;28;20050;-62
2022/04/29 05:59:53;;;;;;;1.02;0.52;;;6.70;55.30;;;;;;4993931;28;20470;-61
2022/04/29 06:02:21;;;;;;;1.08;0.50;;;6.60;57.20;;;;;;4993782;28;20022;-61
2022/04/29 06:04:46;;;;;;;3.88;0.65;;;6.60;55.90;;;;;;4993883;28;20030;-62
2022/04/29 06:07:12;;;;;;;0.40;0.40;;;6.50;55.50;;;;;;4993052;28;20473;-61
2022/04/29 06:09:38;;;;;;;2.30;0.70;;;6.50;54.80;;;;;;4993738;28;20030;-62
2022/04/29 06:12:04;;;;;;;12.45;1.40;;;6.40;54.10;;;;;;4993652;28;20045;-62
2022/04/29 06:14:29;;;;;;;2.90;0.70;;;6.30;54.10;;;;;;4993485;28;20073;-62
2022/04/29 06:16:55;;;;;;;23.73;1.48;;;6.30;53.90;;;;;;4986275;28;20030;-62
2022/04/29 06:19:21;;;;;;;0.45;0.45;;;6.30;54.10;;;;;;4993529;28;20018;-62
2022/04/29 06:21:47;;;;;;;1.35;0.52;;;6.30;54.00;;;;;;4993404;28;20410;-60
2022/04/29 06:24:12;;;;;;;3.63;0.50;;;6.30;54.00;;;;;;4993416;28;20088;-61
2022/04/29 06:26:38;;;;;;;1.55;0.60;;;6.10;53.70;;;;;;4993378;28;20130;-60
2022/04/29 06:29:04;;;;;;;1.65;0.55;;;6.00;53.90;;;;;;4993541;28;20074;-61
2022/04/29 06:31:29;;;;;;;0.63;0.30;;;6.00;53.60;;;;;;4993385;28;20045;-61
2022/04/29 06:33:55;;;;;;;3.78;0.60;;;6.00;54.00;;;;;;4993201;28;20462;-62
2022/04/29 06:36:21;;;;;;;13.48;0.90;;;6.10;55.00;;;;;;4990203;28;20086;-59
2022/04/29 06:38:46;;;;;;;2.35;0.68;;;6.40;55.90;;;;;;5008749;28;20053;-61
2022/04/29 06:41:12;;;;;;;6.28;0.70;;;6.80;56.20;;;;;;5012537;28;20029;-61
2022/04/29 06:43:38;;;;;;;1.08;0.40;;;7.30;57.90;;;;;;5012209;28;20029;-61
2022/04/29 06:46:03;;;;;;;0.32;0.32;;;7.00;53.00;;;;;;5012806;28;20028;-62
2022/04/29 06:48:29;;;;;;;3.28;0.52;;;6.70;52.30;;;;;;5012577;28;20044;-61
2022/04/29 06:50:55;;;;;;;1.48;0.50;;;6.40;53.20;;;;;;5012226;28;20026;-61
2022/04/29 06:53:21;;;;;;;1.13;0.47;;;6.30;52.60;;;;;;5011877;28;20041;-61
2022/04/29 06:55:47;;;;;;;1.17;0.40;;;6.20;52.50;;;;;;5011829;28;20018;-61
2022/04/29 06:58:12;;;;;;;0.52;0.38;;;6.20;52.50;;;;;;5012094;28;20434;-61
2022/04/29 07:00:40;;;;;;;2.38;0.40;;;6.30;53.00;;;;;;5012204;28;20026;-61
2022/04/29 07:03:06;;;;;;;1.45;0.55;;;6.20;52.40;;;;;;5012223;28;20678;-61
2022/04/29 07:05:32;;;;;;;1.02;0.60;;;6.20;52.30;;;;;;5009725;28;20417;-62
2022/04/29 07:07:59;;;;;;;1.17;0.47;;;6.40;55.40;;;;;;5010948;28;20056;-61
2022/04/29 07:10:25;;;;;;;3.38;0.73;;;6.60;52.70;;;;;;4996925;28;20034;-62
2022/04/29 07:12:50;;;;;;;2.53;0.52;;;6.80;58.20;;;;;;4992277;28;20073;-65
2022/04/29 07:15:17;;;;;;;2.88;0.50;;;8.30;65.60;;;;;;4992309;28;20156;-66
2022/04/29 07:17:44;;;;;;;6.18;1.25;;;8.30;54.30;;;;;;4992468;28;20026;-65
2022/04/29 07:20:11;;;;;;;0.40;0.40;;;7.90;52.10;;;;;;5010736;28;20021;-64
2022/04/29 07:22:40;;;;;;;6.97;0.75;;;7.80;52.00;;;;;;4994174;28;20025;-64
2022/04/29 07:25:10;;;;;;;10.57;0.98;;;8.20;68.20;;;;;;4998028;28;20046;-64
2022/04/29 07:27:36;;;;;;;1.00;0.52;;;8.60;54.90;;;;;;4992343;28;20105;-64
2022/04/29 07:30:04;;;;;;;0.65;0.40;;;8.30;52.00;;;;;;4992256;28;20548;-64
2022/04/29 07:32:30;;;;;;;3.60;0.68;;;8.00;51.10;;;;;;4992345;28;20061;-64
2022/04/29 07:43:11;;;;;;;0.32;0.32;;;6.90;52.00;;;;;;4992399;28;20029;-64
2022/04/29 07:45:38;;;;;;;0.85;0.47;;;7.00;51.90;;;;;;4992156;28;20041;-64
2022/04/29 07:48:06;;;;;;;4.22;0.40;;;7.00;51.10;;;;;;4992212;28;20014;-64
2022/04/29 07:50:35;;;;;;;1.85;0.50;;;6.80;52.10;;;;;;4992378;28;20101;-64
2022/04/29 07:53:02;;;;;;;5.90;1.00;;;6.80;51.60;;;;;;4992132;28;20561;-63
2022/04/29 07:55:29;;;;;;;2.75;0.50;;;6.80;51.90;;;;;;4992059;28;20293;-64
2022/04/29 07:57:55;;;;;;;1.73;0.50;;;6.80;51.70;;;;;;4992243;28;20038;-64
2022/04/29 08:00:22;;;;;;;2.83;0.40;;;6.60;51.30;;;;;;4992029;28;20015;-64
2022/04/29 08:02:48;;;;;;;3.53;0.55;;;6.50;51.50;;;;;;4992232;28;20363;-64
2022/04/29 08:05:14;;;;;;;1.88;0.50;;;6.40;51.50;;;;;;4992372;28;20030;-63
2022/04/29 08:07:40;;;;;;;1.95;0.47;;;6.30;51.60;;;;;;4991947;28;20029;-64
2022/04/29 08:10:06;;;;;;;1.02;0.47;;;6.10;51.40;;;;;;4991984;28;20023;-64
2022/04/29 08:12:32;;;;;;;1.48;0.60;;;6.10;52.10;;;;;;4991984;28;20033;-64
2022/04/29 08:14:58;;;;;;;2.40;0.60;;;6.10;53.10;;;;;;4992337;28;20037;-64
2022/04/29 08:17:25;;;;;;;1.95;0.60;;;6.20;52.80;;;;;;4992007;28;20030;-64
2022/04/29 08:19:52;;;;;;;5.75;0.55;;;6.20;51.90;;;;;;4992255;28;20153;-63
2022/04/29 08:22:19;;;;;;;7.72;0.60;;;6.00;51.90;;;;;;4992219;28;20030;-63
2022/04/29 08:24:45;;;;;;;1.55;0.40;;;6.00;52.00;;;;;;4991886;28;20023;-63
2022/04/29 08:27:11;;;;;;;2.72;0.40;;;6.10;51.80;;;;;;4991939;28;20022;-63
2022/04/29 08:29:38;;;;;;;4.60;0.43;;;6.10;51.50;;;;;;4991678;28;20421;-63
2022/04/29 08:32:04;;;;;;;1.45;0.43;;;6.20;51.60;;;;;;4994738;28;20128;-64
2022/04/29 08:34:31;;;;;;;0.65;0.50;;;6.20;51.50;;;;;;4995423;28;20030;-63
2022/04/29 08:36:57;;;;;;;0.35;0.30;;;6.30;51.60;;;;;;4995658;28;20402;-64
2022/04/29 08:39:23;;;;;;;1.33;0.57;;;6.30;51.60;;;;;;4995486;28;20027;-63
2022/04/29 08:41:52;;;;;;;9.38;1.10;;;6.30;51.50;;;;;;4995704;28;20030;-63
2022/04/29 08:44:20;;;;;;;0.40;0.40;;;6.30;51.50;;;;;;4995569;28;20037;-63
2022/04/29 08:46:46;;;;;;;1.23;0.50;;;6.30;51.50;;;;;;4995384;28;20030;-63
2022/04/29 08:49:12;;;;;;;1.15;0.35;;;6.20;51.00;;;;;;4995448;28;20054;-64
2022/04/29 08:51:38;;;;;;;0.43;0.43;;;6.10;51.00;;;;;;4995061;28;20035;-63
2022/04/29 08:54:04;;;;;;;1.90;0.52;;;6.10;51.20;;;;;;4995157;28;20025;-63
2022/04/29 08:59:22;;;;;;;2.15;0.40;;;6.00;50.70;;;;;;4995008;28;20034;-63
2022/04/29 09:01:48;;;;;;;11.13;0.70;;;6.00;51.00;;;;;;4994966;28;20386;-63
2022/04/29 09:04:14;;;;;;;1.95;0.50;;;6.10;50.90;;;;;;4977619;28;20092;-63
2022/04/29 09:06:47;;;;;;;2.83;0.40;;;6.20;51.60;;;;;;4994921;28;20442;-63
2022/04/29 09:09:13;;;;;;;1.00;0.43;;;6.20;50.40;;;;;;4994816;28;20026;-63
2022/04/29 09:11:39;;;;;;;0.40;0.40;;;6.10;50.30;;;;;;4994977;28;20034;-63
2022/04/29 09:14:22;;;;;;;3.25;0.45;;;6.00;50.10;;;;;;4994821;28;20065;-63
2022/04/29 09:16:49;;;;;;;2.67;0.40;;;6.00;50.10;;;;;;4994851;28;20022;-63
2022/04/29 09:19:35;;;;;;;0.43;0.40;;;6.00;50.50;;;;;;4994699;28;20014;-63
2022/04/29 09:22:08;;;;;;;0.43;0.40;;;6.10;50.00;;;;;;4994718;28;20049;-63
2022/04/29 09:24:37;;;;;;;2.20;0.82;;;6.20;49.60;;;;;;4994566;28;20069;-64
2022/04/29 09:27:05;;;;;;;0.63;0.50;;;6.00;49.90;;;;;;4994449;28;20041;-64
2022/04/29 09:29:40;;;;;;;0.60;0.60;;;6.00;50.00;;;;;;4994359;28;20030;-64
2022/04/29 09:32:06;;;;;;;0.63;0.40;;;6.10;49.70;;;;;;4994492;28;20104;-64
2022/04/29 09:34:58;;;;;;;3.75;0.50;;;6.10;50.00;;;;;;4994319;28;20433;-64
2022/04/29 09:37:26;;;;;;;0.20;0.20;;;6.30;50.00;;;;;;4994013;28;20054;-64
2022/04/29 09:39:52;;;;;;;8.73;0.50;;;6.30;49.40;;;;;;4994554;28;20036;-64
2022/04/29 09:42:18;;;;;;;1.15;0.40;;;6.40;48.90;;;;;;4993311;28;20018;-64
2022/04/29 09:44:45;;;;;;;1.00;0.60;;;6.30;47.70;;;;;;4994109;28;20088;-64
2022/04/29 09:47:21;;;;;;;2.53;0.57;;;6.30;48.10;;;;;;4977074;28;20022;-64
2022/04/29 09:49:56;;;;;;;1.80;0.43;;;6.40;49.30;;;;;;4994181;28;20037;-64
2022/04/29 09:52:26;;;;;;;0.30;0.30;;;6.40;49.30;;;;;;4994087;28;20066;-64
2022/04/29 09:54:53;;;;;;;1.17;0.30;;;6.50;48.90;;;;;;4994274;28;20036;-64
2022/04/29 09:57:23;;;;;;;5.57;0.50;;;6.30;47.50;;;;;;4994252;28;20449;-64
2022/04/29 09:59:51;;;;;;;0.73;0.52;;;6.30;48.70;;;;;;4994029;28;20466;-64
2022/04/29 10:02:21;;;;;;;2.30;0.50;;;6.30;48.20;;;;;;4994070;28;20026;-64
2022/04/29 10:04:48;;;;;;;1.03;0.40;;;6.20;48.10;;;;;;4993777;28;20037;-64
2022/04/29 10:07:16;;;;;;;1.10;0.50;;;6.30;49.20;;;;;;4994138;28;20297;-64
2022/04/29 10:09:50;;;;;;;0.40;0.40;;;6.30;49.00;;;;;;4993562;28;20494;-64
2022/04/29 10:12:21;;;;;;;0.80;0.40;;;6.40;49.40;;;;;;4993678;28;20042;-64
2022/04/29 10:14:50;;;;;;;5.05;0.52;;;6.40;49.60;;;;;;4976045;28;20030;-64
2022/04/29 10:22:53;;;;;;;5.03;0.65;;;6.40;49.40;;;;;;4993144;28;20081;-64
2022/04/29 10:25:21;;;;;;;11.38;0.80;;;6.50;49.50;;;;;;4993507;28;20062;-64
2022/04/29 10:27:50;;;;;;;0.30;0.30;;;6.60;49.80;;;;;;4993208;28;20033;-64
2022/04/29 10:30:33;;;;;;;0.63;0.40;;;6.60;49.60;;;;;;4993423;28;20026;-64
2022/04/29 10:33:05;;;;;;;6.80;1.73;;;6.60;49.50;;;;;;4986274;28;20525;-65
2022/04/29 10:35:40;;;;;;;6.90;0.80;;;6.60;51.20;;;;;;4973575;28;20039;-64
2022/04/29 10:38:15;;;;;;;0.77;0.40;;;6.80;50.20;;;;;;4997871;28;20050;-63
2022/04/29 10:40:41;;;;;;;2.00;0.47;;;6.90;49.20;;;;;;4995107;28;20026;-63
2022/04/29 10:43:09;;;;;;;0.22;0.20;;;6.90;49.10;;;;;;5012651;28;20026;-64
2022/04/29 10:45:36;;;;;;;0.52;0.40;;;6.80;49.20;;;;;;5012146;28;20033;-64
2022/04/29 10:48:34;;;;;;;0.52;0.38;;;7.00;49.00;;;;;;5012580;28;20022;-64
2022/04/29 10:51:20;;;;;;;2.45;0.40;;;6.90;48.90;;;;;;5012634;28;20060;-65
2022/04/29 10:53:50;;;;;;;5.90;0.85;;;7.00;49.50;;;;;;5012074;28;20030;-65
2022/04/29 10:56:29;;;;;;;2.20;0.85;;;7.10;49.50;;;;;;5012510;28;20061;-65
2022/04/29 10:59:04;;;;;;;0.52;0.47;;;7.20;48.80;;;;;;5012575;28;20061;-65
2022/04/29 11:01:34;;;;;;;0.82;0.50;;;7.20;48.20;;;;;;5012154;28;20053;-64
2022/04/29 11:04:00;;;;;;;0.87;0.47;;;7.10;48.10;;;;;;5012306;28;20029;-65
2022/04/29 11:06:41;;;;;;;0.98;0.40;;;7.10;49.10;;;;;;5012342;28;20021;-64
2022/04/29 11:09:25;;;;;;;1.63;0.40;;;7.10;49.00;;;;;;5012208;28;20064;-66
2022/04/29 11:11:51;;;;;;;1.30;0.68;;;7.10;49.40;;;;;;4997399;28;20038;-65
2022/04/29 11:14:17;;;;;;;1.25;0.60;;;7.20;49.40;;;;;;5002202;28;20473;-64
2022/04/29 11:16:53;;;;;;;0.40;0.40;;;7.10;49.50;;;;;;5012055;28;20117;-64
2022/04/29 11:19:21;;;;;;;0.40;0.40;;;7.30;50.50;;;;;;5012320;28;20481;-64
2022/04/29 11:24:47;;;;;;;0.30;0.30;;;6.90;47.30;;;;;;5012482;28;20040;-64
2022/04/29 11:27:13;;;;;;;1.23;0.50;;;6.90;47.50;;;;;;5011764;28;20033;-64
2022/04/29 11:29:45;;;;;;;0.32;0.30;;;7.10;48.40;;;;;;5011938;28;20034;-64
2022/04/29 11:32:12;;;;;;;3.35;0.60;;;7.10;47.10;;;;;;5012105;28;20125;-64
2022/04/29 11:34:55;;;;;;;2.33;0.40;;;7.20;47.10;;;;;;5011896;28;20432;-64
2022/04/29 11:37:25;;;;;;;1.95;0.47;;;7.10;46.80;;;;;;5005873;28;20050;-64
2022/04/29 11:40:01;;;;;;;0.75;0.47;;;7.20;47.30;;;;;;4974659;28;20022;-64
2022/04/29 11:42:27;;;;;;;2.80;0.43;;;7.30;47.70;;;;;;4974516;28;20086;-64
2022/04/29 11:44:53;;;;;;;4.10;1.05;;;7.80;61.00;;;;;;4972630;28;20034;-64
2022/04/29 11:47:29;;;;;;;2.10;0.40;;;8.30;50.70;;;;;;4972829;28;20050;-64
2022/04/29 11:49:55;;;;;;;4.28;0.43;;;8.10;47.50;;;;;;4984449;28;20062;-64
2022/04/29 11:52:23;;;;;;;0.85;0.50;;;8.10;53.60;;;;;;4978006;28;20101;-64
2022/04/29 11:54:58;;;;;;;5.03;0.65;;;8.10;47.60;;;;;;4972468;28;20431;-64
2022/04/29 11:57:27;;;;;;;2.22;0.40;;;7.80;47.30;;;;;;4972806;28;20066;-64
2022/04/29 11:59:53;;;;;;;0.63;0.47;;;7.70;47.40;;;;;;4972469;28;20106;-64
2022/04/29 12:02:23;;;;;;;1.52;0.50;;;7.50;47.10;;;;;;4972908;28;20105;-64
2022/04/29 12:05:00;;;;;;;1.95;1.27;;;7.30;47.60;;;;;;4972731;28;20109;-64
2022/04/29 12:07:28;;;;;;;13.45;2.08;;;7.40;48.10;;;;;;4976436;28;20101;-64
2022/04/29 12:09:54;;;;;;;14.85;1.45;;;7.50;47.80;;;;;;4976404;28;20022;-64
2022/04/29 12:12:30;;;;;;;4.43;0.50;;;7.60;47.20;;;;;;4976441;28;20446;-63
2022/04/29 12:14:58;;;;;;;1.75;0.68;;;7.70;46.80;;;;;;4976314;28;20082;-64
2022/04/29 12:17:32;;;;;;;1.38;0.40;;;7.60;46.70;;;;;;4987103;28;20417;-64
2022/04/29 12:19:58;;;;;;;0.70;0.25;;;7.50;46.20;;;;;;4995089;28;20019;-63
2022/04/29 12:22:32;;;;;;;1.38;0.40;;;7.40;46.40;;;;;;4996051;28;20444;-64
2022/04/29 12:25:26;;;;;;;0.30;0.30;;;7.40;46.30;;;;;;4992210;28;20035;-63
2022/04/29 12:28:16;;;;;;;0.40;0.40;;;7.40;46.00;;;;;;4992035;28;20033;-64
2022/04/29 12:36:51;;;;;;;0.30;0.30;;;7.10;47.80;;;;;;4989652;28;20122;-63
2022/04/29 12:39:27;;;;;;;0.80;0.43;;;7.40;47.00;;;;;;4996581;28;20370;-64
2022/04/29 12:42:06;;;;;;;12.48;0.60;;;7.50;46.60;;;;;;5011513;28;20049;-64
2022/04/29 12:47:49;;;;;;;3.80;0.52;;;7.40;46.50;;;;;;4975820;28;20138;-66
2022/04/29 12:50:23;;;;;;;0.68;0.60;;;7.50;47.60;;;;;;4975901;28;20039;-65
2022/04/29 12:53:04;;;;;;;2.10;0.45;;;7.70;47.40;;;;;;4995709;28;20554;-64
2022/04/29 12:55:36;;;;;;;1.60;0.50;;;7.60;46.90;;;;;;4992640;28;20019;-66
2022/04/29 12:58:11;;;;;;;0.73;0.30;;;7.60;49.20;;;;;;4995133;28;20030;-64
2022/04/29 13:00:39;;;;;;;4.60;0.32;;;7.90;48.70;;;;;;4994920;28;20597;-64
2022/04/29 13:03:07;;;;;;;11.68;0.70;;;7.80;47.90;;;;;;4995248;28;20026;-65
2022/04/29 13:05:34;;;;;;;1.17;0.45;;;7.80;49.30;;;;;;4994885;28;20037;-64
2022/04/29 13:08:01;;;;;;;1.27;0.40;;;8.30;51.90;;;;;;4994784;28;20033;-64
2022/04/29 13:10:27;;;;;;;1.83;0.57;;;8.10;47.70;;;;;;4998014;28;20026;-65
2022/04/29 13:12:57;;;;;;;2.22;0.47;;;8.00;48.00;;;;;;5009449;28;20056;-65
2022/04/29 13:15:23;;;;;;;6.97;0.73;;;8.00;48.50;;;;;;5014314;28;20030;-64
2022/04/29 13:17:49;;;;;;;1.23;0.40;;;8.00;48.60;;;;;;4996380;28;20026;-64
2022/04/29 13:20:16;;;;;;;6.90;0.50;;;7.90;48.30;;;;;;5014307;28;20026;-65
2022/04/29 13:22:42;;;;;;;1.05;0.60;;;7.80;48.40;;;;;;5014487;28;20060;-64
2022/04/29 13:25:09;;;;;;;1.38;0.40;;;7.80;48.80;;;;;;5014301;28;20072;-64
2022/04/29 13:27:35;;;;;;;0.80;0.80;;;7.70;49.20;;;;;;5013529;28;20491;-64
2022/04/29 13:30:02;;;;;;;0.40;0.40;;;7.80;49.20;;;;;;5014026;28;20488;-64
2022/04/29 13:32:28;;;;;;;2.42;0.82;;;7.70;48.70;;;;;;4996511;28;20084;-64
2022/04/29 13:34:54;;;;;;;0.68;0.40;;;7.80;49.30;;;;;;5013949;28;20425;-66
2022/04/29 13:37:21;;;;;;;14.05;1.13;;;7.80;49.30;;;;;;4992898;28;20144;-65
2022/04/29 13:39:47;;;;;;;4.25;0.50;;;7.90;50.50;;;;;;4992954;28;20381;-66
2022/04/29 13:42:16;;;;;;;0.75;0.38;;;8.00;50.10;;;;;;4994391;28;20721;-65
2022/04/29 13:44:42;;;;;;;75.78;4.30;;;7.90;48.80;;;;;;4994158;28;20109;-65
2022/04/29 13:47:09;;;;;;;11.20;0.90;;;7.80;49.90;;;;;;4994545;28;20441;-65
2022/04/29 13:49:35;;;;;;;44.85;2.97;;;8.00;53.60;;;;;;4992931;28;20034;-66
2022/04/29 13:54:44;;;;;;;7.50;0.80;;;8.30;50.00;;;;;;4994230;28;20441;-66
2022/04/29 13:57:10;;;;;;;10.70;0.75;;;8.20;49.40;;;;;;4994193;28;20027;-66
2022/04/29 13:59:36;;;;;;;20.65;1.42;;;8.30;55.90;;;;;;4994232;28;20034;-65
2022/04/29 14:02:02;;;;;;;4.95;0.30;;;9.10;60.10;;;;;;4994055;28;20036;-65
2022/04/29 14:04:28;;;;;;;7.95;0.73;;;9.30;51.20;;;;;;4994310;28;20026;-66
2022/04/29 14:06:53;;;;;;;0.88;0.73;;;9.00;57.00;;;;;;4993813;28;20061;-65
2022/04/29 14:09:19;;;;;;;1.95;0.30;;;9.00;51.00;;;;;;4990706;28;20057;-65
2022/04/29 14:11:45;;;;;;;1.63;0.40;;;8.70;49.50;;;;;;4992478;28;20042;-65
2022/04/29 14:14:10;;;;;;;10.57;0.70;;;8.40;49.50;;;;;;4984131;28;20030;-66
2022/04/29 14:16:36;;;;;;;3.15;0.50;;;8.30;49.80;;;;;;4989717;28;20390;-65
2022/04/29 14:19:02;;;;;;;8.02;0.50;;;8.20;49.60;;;;;;4988310;28;20418;-65
2022/04/29 14:21:28;;;;;;;1.85;0.55;;;8.10;49.90;;;;;;4993903;28;20031;-65
2022/04/29 14:23:53;;;;;;;0.90;0.30;;;8.10;49.90;;;;;;4993556;28;20018;-65
2022/04/29 14:26:19;;;;;;;1.95;0.50;;;7.90;50.20;;;;;;4990605;28;20030;-65
2022/04/29 14:28:45;;;;;;;10.25;1.75;;;8.10;54.50;;;;;;4991868;28;20481;-66
2022/04/29 14:31:11;;;;;;;0.55;0.50;;;8.80;59.30;;;;;;4990018;28;20043;-65
2022/04/29 14:33:38;;;;;;;0.60;0.30;;;9.50;55.30;;;;;;4987105;28;20105;-65
2022/04/29 14:36:05;;;;;;;2.17;0.40;;;9.10;50.10;;;;;;4986521;28;20041;-65
2022/04/29 14:38:31;;;;;;;0.68;0.30;;;8.60;49.80;;;;;;4988146;28;20055;-65